createdAt,value
2019-01-16T00:01:18.464Z,17.23
2019-01-16T00:03:49.688Z,16.50
2019-01-16T00:06:18.016Z,16.53
2019-01-16T00:08:46.348Z,15.37
2019-01-16T00:11:20.377Z,15.80
2019-01-16T00:14:06.837Z,15.27
2019-01-16T00:16:46.948Z,13.90
2019-01-16T00:19:21.226Z,13.90
2019-01-16T00:21:52.577Z,15.63
2019-01-16T00:24:26.663Z,12.87
2019-01-16T00:27:10.112Z,13.50
2019-01-16T00:29:44.235Z,12.23
2019-01-16T00:32:12.604Z,13.47
2019-01-16T00:34:53.072Z,11.97
2019-01-16T00:37:38.032Z,12.37
2019-01-16T00:40:10.983Z,11.33
2019-01-16T00:42:45.292Z,10.53
2019-01-16T00:45:13.620Z,11.73
2019-01-16T00:47:57.096Z,11.00
2019-01-16T00:50:43.649Z,11.03
2019-01-16T00:53:20.846Z,10.73
2019-01-16T00:56:07.378Z,9.90
2019-01-16T00:58:53.617Z,10.23
2019-01-16T01:01:22.725Z,10.10
2019-01-16T01:03:51.040Z,9.70
2019-01-16T01:06:37.382Z,9.90
2019-01-16T01:09:07.423Z,9.50
2019-01-16T01:11:36.512Z,9.03
2019-01-16T01:14:19.941Z,9.47
2019-01-16T01:16:57.251Z,8.83
2019-01-16T01:19:42.300Z,7.90
2019-01-16T01:22:13.282Z,7.73
2019-01-16T01:24:58.171Z,8.10
2019-01-16T01:27:45.035Z,7.10
2019-01-16T01:30:22.520Z,7.23
2019-01-16T01:32:56.847Z,7.80
2019-01-16T01:35:42.132Z,7.63
2019-01-16T01:38:26.991Z,7.63
2019-01-16T01:41:10.770Z,7.80
2019-01-16T01:43:41.712Z,6.83
2019-01-16T01:46:26.834Z,7.03
2019-01-16T01:49:07.269Z,8.00
2019-01-16T01:51:38.260Z,6.97
2019-01-16T01:54:09.464Z,7.37
2019-01-16T01:56:54.725Z,6.43
2019-01-16T01:59:34.956Z,6.53
2019-01-16T02:02:03.314Z,6.43
2019-01-16T02:04:46.752Z,6.70
2019-01-16T02:07:18.340Z,6.57
2019-01-16T02:09:46.924Z,6.10
2019-01-16T04:35:59.643Z,3.37
2019-01-16T04:38:37.011Z,3.73
2019-01-16T04:41:21.873Z,3.43
2019-01-16T04:44:06.772Z,3.77
2019-01-16T04:46:41.388Z,3.30
2019-01-16T04:49:18.785Z,3.10
2019-01-16T04:51:47.104Z,3.50
2019-01-16T04:54:32.323Z,3.10
2019-01-16T04:57:01.012Z,3.37
2019-01-16T04:59:29.593Z,3.70
2019-01-16T05:02:04.002Z,3.47
2019-01-16T05:04:35.201Z,3.40
2019-01-16T05:07:03.516Z,3.13
2019-01-16T05:09:32.115Z,3.30
2019-01-16T05:12:10.171Z,3.27
2019-01-16T05:14:56.650Z,2.80
2019-01-16T05:17:43.269Z,2.90
2019-01-16T05:20:11.616Z,2.90
2019-01-16T05:22:42.807Z,3.30
2019-01-16T05:25:13.838Z,2.90
2019-01-16T05:27:58.772Z,2.87
2019-01-16T05:30:27.145Z,3.40
2019-01-16T05:32:55.455Z,2.73
2019-01-16T05:35:35.763Z,2.73
2019-01-16T05:38:09.767Z,2.80
2019-01-16T05:40:38.121Z,2.80
2019-01-16T05:43:06.432Z,3.00
2019-01-16T05:45:34.753Z,2.77
2019-01-16T05:48:03.096Z,3.10
2019-01-16T05:50:48.357Z,2.70
2019-01-16T05:53:16.713Z,3.00
2019-01-16T05:55:57.091Z,2.30
2019-01-16T05:58:25.931Z,2.97
2019-01-16T06:00:54.497Z,2.93
2019-01-16T06:03:29.772Z,2.80
2019-01-16T06:06:05.051Z,2.63
2019-01-16T06:08:50.219Z,3.10
2019-01-16T06:11:18.527Z,2.63
2019-01-16T06:14:03.147Z,2.67
2019-01-16T06:16:31.735Z,2.90
2019-01-16T06:19:18.138Z,2.90
2019-01-16T06:22:03.096Z,2.47
2019-01-16T06:24:46.295Z,2.63
2019-01-16T06:27:17.131Z,2.33
2019-01-16T06:29:45.547Z,3.13
2019-01-16T06:32:22.844Z,3.20
2019-01-16T06:34:57.347Z,2.37
2019-01-16T06:37:28.588Z,2.60
2019-01-16T06:39:59.831Z,2.90
2019-01-16T06:42:28.415Z,2.90
2019-01-16T06:44:57.108Z,2.70
2019-01-16T06:47:34.800Z,2.53
2019-01-16T06:50:16.537Z,3.20
2019-01-16T06:52:45.555Z,2.60
2019-01-16T06:55:13.907Z,2.67
2019-01-16T06:57:42.225Z,2.93
2019-01-16T07:00:21.320Z,2.90
2019-01-16T07:02:49.636Z,3.03
2019-01-16T07:05:21.143Z,3.53
2019-01-16T07:08:06.055Z,3.10
2019-01-16T07:10:34.404Z,3.20
2019-01-16T07:13:05.356Z,3.60
2019-01-16T07:15:33.956Z,3.27
2019-01-16T07:18:14.091Z,3.47
2019-01-16T07:20:48.071Z,2.80
2019-01-16T07:23:28.461Z,3.13
2019-01-16T07:25:56.780Z,3.37
2019-01-16T07:28:43.299Z,3.33
2019-01-16T07:31:11.607Z,3.23
2019-01-16T07:33:48.920Z,3.30
2019-01-16T07:36:33.815Z,3.57
2019-01-16T07:39:11.176Z,3.23
2019-01-16T07:41:51.535Z,2.90
2019-01-16T07:44:19.886Z,3.10
2019-01-16T07:47:04.878Z,3.23
2019-01-16T07:49:49.549Z,3.53
2019-01-16T07:52:17.860Z,3.20
2019-01-16T07:54:46.180Z,3.60
2019-01-16T07:57:14.523Z,3.57
2019-01-16T07:59:43.148Z,3.70
2019-01-16T08:02:20.627Z,3.50
2019-01-16T08:04:49.189Z,3.27
2019-01-16T08:07:23.463Z,4.10
2019-01-16T08:10:03.900Z,3.30
2019-01-16T08:12:34.975Z,4.37
2019-01-16T08:15:21.120Z,3.97
2019-01-16T08:17:49.715Z,4.17
2019-01-16T08:20:24.953Z,4.00
2019-01-16T08:22:54.512Z,3.77
2019-01-16T08:25:28.872Z,3.30
2019-01-16T08:28:14.271Z,3.67
2019-01-16T08:30:42.626Z,3.30
2019-01-16T08:33:27.704Z,3.50
2019-01-16T08:36:05.109Z,3.33
2019-01-16T08:38:39.267Z,3.13
2019-01-16T08:41:07.591Z,3.63
2019-01-16T08:43:44.805Z,2.93
2019-01-16T08:46:13.127Z,3.30
2019-01-16T08:48:41.432Z,3.63
2019-01-16T08:51:21.643Z,2.90
2019-01-16T08:53:58.636Z,2.77
2019-01-16T08:56:32.875Z,3.23
2019-01-16T08:59:01.187Z,3.17
2019-01-16T09:01:32.936Z,3.60
2019-01-16T09:04:11.007Z,3.20
2019-01-16T09:06:42.027Z,2.97
2019-01-16T09:09:26.970Z,3.43
2019-01-16T09:12:11.859Z,3.13
2019-01-16T09:14:40.176Z,3.03
2019-01-16T09:17:11.121Z,2.63
2019-01-16T09:19:45.386Z,3.60
2019-01-16T09:22:25.711Z,3.43
2019-01-16T09:24:56.668Z,2.90
2019-01-16T09:27:30.929Z,3.00
2019-01-16T09:30:02.164Z,2.87
2019-01-16T09:32:30.480Z,2.90
2019-01-16T09:35:15.480Z,2.90
2019-01-16T09:37:43.801Z,3.00
2019-01-16T09:40:21.096Z,3.10
2019-01-16T09:43:05.991Z,3.40
2019-01-16T09:45:37.348Z,3.03
2019-01-16T09:48:22.362Z,3.20
2019-01-16T09:50:56.323Z,3.10
2019-01-16T09:53:41.077Z,2.80
2019-01-16T09:56:09.395Z,2.30
2019-01-16T09:58:43.712Z,2.83
2019-01-16T10:01:12.063Z,2.70
2019-01-16T10:03:49.593Z,2.83
2019-01-16T10:06:20.867Z,3.20
2019-01-16T10:08:55.117Z,3.03
2019-01-16T10:11:29.772Z,3.10
2019-01-16T10:14:04.296Z,2.70
2019-01-16T10:16:41.709Z,2.43
2019-01-16T10:19:28.311Z,2.50
2019-01-16T10:21:56.654Z,3.10
2019-01-16T10:24:30.955Z,2.60
2019-01-16T10:27:11.364Z,3.07
2019-01-16T10:29:40.693Z,2.70
2019-01-16T10:32:19.036Z,2.70
2019-01-16T10:34:47.434Z,2.93
2019-01-16T10:37:32.220Z,3.40
2019-01-16T10:40:00.536Z,2.47
2019-01-16T10:42:31.726Z,2.70
2019-01-16T10:45:02.960Z,3.00
2019-01-16T10:47:43.728Z,2.80
2019-01-16T10:50:28.192Z,2.90
2019-01-16T10:52:56.539Z,2.50
2019-01-16T10:55:30.771Z,3.00
2019-01-16T10:58:04.847Z,2.60
2019-01-16T11:00:38.941Z,2.17
2019-01-16T11:03:07.292Z,2.40
2019-01-16T11:05:44.891Z,2.90
2019-01-16T11:08:19.509Z,2.43
2019-01-16T11:10:59.753Z,1.93
2019-01-16T11:13:28.483Z,2.50
2019-01-16T11:16:00.087Z,2.50
2019-01-16T11:18:31.045Z,2.70
2019-01-16T11:21:11.122Z,2.70
2019-01-16T11:23:38.880Z,2.30
2019-01-16T11:26:09.892Z,2.63
2019-01-16T11:28:40.831Z,2.70
2019-01-16T11:31:12.064Z,2.60
2019-01-16T11:33:40.375Z,2.30
2019-01-16T11:36:25.304Z,2.57
2019-01-16T11:39:10.324Z,2.60
2019-01-16T11:41:41.823Z,2.77
2019-01-16T11:44:12.763Z,2.53
2019-01-16T11:46:59.676Z,3.07
2019-01-16T11:49:28.254Z,2.37
2019-01-16T11:52:13.224Z,2.47
2019-01-16T11:54:47.539Z,2.37
2019-01-16T11:57:32.516Z,2.27
2019-01-16T12:00:00.861Z,2.27
2019-01-16T12:02:29.568Z,2.50
2019-01-16T12:05:09.652Z,2.27
2019-01-16T12:07:46.758Z,2.73
2019-01-16T12:10:20.715Z,2.50
2019-01-16T12:12:54.978Z,2.80
2019-01-16T12:15:39.600Z,2.40
2019-01-16T12:18:23.046Z,2.20
2019-01-16T12:20:57.342Z,2.27
2019-01-16T12:23:34.724Z,2.77
2019-01-16T12:26:08.058Z,2.73
2019-01-16T12:28:48.177Z,2.73
2019-01-16T12:31:19.289Z,2.00
2019-01-16T12:34:02.528Z,2.47
2019-01-16T12:36:47.127Z,2.57
2019-01-16T12:39:15.472Z,2.20
2019-01-16T12:41:46.707Z,2.70
2019-01-16T12:44:17.899Z,2.37
2019-01-16T12:46:49.129Z,2.00
2019-01-16T12:49:29.210Z,2.70
2019-01-16T12:52:12.662Z,2.20
2019-01-16T12:54:57.555Z,2.67
2019-01-16T12:57:43.956Z,2.20
2019-01-16T13:00:16.448Z,1.80
2019-01-16T13:02:56.748Z,2.20
2019-01-16T13:05:27.980Z,2.70
2019-01-16T13:07:59.331Z,2.07
2019-01-16T13:10:44.244Z,2.23
2019-01-16T13:13:21.247Z,1.90
2019-01-16T13:15:58.240Z,2.40
2019-01-16T13:18:29.459Z,2.53
2019-01-16T13:21:03.700Z,2.07
2019-01-16T13:23:35.077Z,2.50
2019-01-16T13:26:21.254Z,1.90
2019-01-16T13:29:01.625Z,2.10
2019-01-16T13:31:29.972Z,2.10
2019-01-16T13:34:10.539Z,1.90
2019-01-16T13:36:55.576Z,2.50
2019-01-16T13:39:26.924Z,2.20
2019-01-16T13:41:55.272Z,2.80
2019-01-16T13:44:23.584Z,1.90
2019-01-16T13:46:54.807Z,2.07
2019-01-16T13:49:25.996Z,2.23
2019-01-16T13:52:11.039Z,1.90
2019-01-16T13:54:48.279Z,2.10
2019-01-16T13:57:22.552Z,1.80
2019-01-16T13:59:51.220Z,2.13
2019-01-16T14:02:25.607Z,2.33
2019-01-16T14:05:08.780Z,1.90
2019-01-16T14:07:53.639Z,2.00
2019-01-16T14:10:22.020Z,2.20
2019-01-16T14:13:08.252Z,2.50
2019-01-16T14:15:39.599Z,1.90
2019-01-16T14:18:22.763Z,1.50
2019-01-16T14:21:07.540Z,2.60
2019-01-16T14:23:45.128Z,2.20
2019-01-16T14:26:16.376Z,1.60
2019-01-16T14:28:44.960Z,1.93
2019-01-16T14:31:19.087Z,1.70
2019-01-16T14:34:05.505Z,1.57
2019-01-16T14:36:50.457Z,1.50
2019-01-16T14:39:18.768Z,1.73
2019-01-16T14:41:53.031Z,2.17
2019-01-16T14:44:21.612Z,2.10
2019-01-16T14:46:49.927Z,1.80
2019-01-16T14:49:26.932Z,1.70
2019-01-16T14:52:07.327Z,1.80
2019-01-16T14:54:44.926Z,1.80
2019-01-16T14:57:13.608Z,1.60
2019-01-16T14:59:47.823Z,1.70
2019-01-16T15:02:18.851Z,1.80
2019-01-16T15:04:47.163Z,1.60
2019-01-16T15:07:15.476Z,1.97
2019-01-16T15:09:46.507Z,1.70
2019-01-16T15:12:31.194Z,1.70
2019-01-16T15:14:59.795Z,2.10
2019-01-16T15:17:36.874Z,2.00
2019-01-16T15:20:25.432Z,1.63
2019-01-16T15:22:53.751Z,1.90
2019-01-16T15:25:38.667Z,1.70
2019-01-16T15:28:18.795Z,1.30
2019-01-16T15:30:59.282Z,1.57
2019-01-16T15:33:27.600Z,1.87
2019-01-16T15:35:58.362Z,1.90
2019-01-16T15:38:41.523Z,2.20
2019-01-16T15:41:12.663Z,1.93
2019-01-16T15:43:41.343Z,1.90
2019-01-16T15:46:09.697Z,1.97
2019-01-16T15:48:46.923Z,2.10
2019-01-16T15:51:31.896Z,2.13
2019-01-16T15:54:06.225Z,2.03
2019-01-16T15:56:46.700Z,2.37
2019-01-16T15:59:15.357Z,2.30
2019-01-16T16:01:46.891Z,2.87
2019-01-16T16:04:27.206Z,2.80
2019-01-16T16:07:04.739Z,3.37
2019-01-16T16:09:38.995Z,2.70
2019-01-16T16:12:16.254Z,2.93
2019-01-16T16:14:56.681Z,2.23
2019-01-16T16:17:27.617Z,3.20
2019-01-16T16:20:02.172Z,2.80
2019-01-16T16:22:33.408Z,3.17
2019-01-16T16:25:02.002Z,2.63
2019-01-16T16:27:36.240Z,3.27
2019-01-16T16:30:15.743Z,3.37
2019-01-16T16:33:01.927Z,3.90
2019-01-16T16:35:30.243Z,5.33
2019-01-16T16:38:04.838Z,4.17
2019-01-16T16:40:36.082Z,3.63
2019-01-16T16:43:04.551Z,4.47
2019-01-16T16:45:41.859Z,4.63
2019-01-16T16:48:22.283Z,5.10
2019-01-16T16:51:07.323Z,3.90
2019-01-16T16:53:50.688Z,5.50
2019-01-16T16:56:22.011Z,4.00
2019-01-16T16:58:57.647Z,4.50
2019-01-16T17:01:35.163Z,5.37
2019-01-16T17:04:03.516Z,5.70
2019-01-16T17:06:32.155Z,5.03
2019-01-16T17:09:03.339Z,5.00
2019-01-16T17:11:40.995Z,4.87
2019-01-16T17:14:15.218Z,4.77
2019-01-16T17:16:43.895Z,5.40
2019-01-16T17:19:30.500Z,5.00
2019-01-16T17:21:58.860Z,6.10
2019-01-16T17:24:39.240Z,5.70
2019-01-16T17:27:07.591Z,5.30
2019-01-16T17:29:51.051Z,5.10
2019-01-16T17:32:37.651Z,5.53
2019-01-16T17:35:07.372Z,5.70
2019-01-16T17:37:44.757Z,5.97
2019-01-16T17:40:15.279Z,5.60
2019-01-16T17:42:43.859Z,5.97
2019-01-16T17:45:12.211Z,5.03
2019-01-16T17:47:46.187Z,5.47
2019-01-16T17:50:20.486Z,4.97
2019-01-16T17:53:03.947Z,5.27
2019-01-16T17:55:48.819Z,5.13
2019-01-16T17:58:17.132Z,5.30
2019-01-16T18:00:45.483Z,5.20
2019-01-16T18:03:25.820Z,5.33
2019-01-16T18:05:54.185Z,5.00
2019-01-16T18:08:40.955Z,6.00
2019-01-16T18:11:09.303Z,5.67
2019-01-16T18:13:46.712Z,5.47
2019-01-16T18:16:32.099Z,4.97
2019-01-16T18:19:00.420Z,5.10
2019-01-16T18:21:37.972Z,5.00
2019-01-16T18:24:09.165Z,5.70
2019-01-16T18:26:46.591Z,4.77
2019-01-16T18:29:30.340Z,4.67
2019-01-16T18:32:14.944Z,4.70
2019-01-16T18:34:49.260Z,4.50
2019-01-16T18:37:17.603Z,4.53
2019-01-16T18:39:54.880Z,4.07
2019-01-16T18:42:39.787Z,4.40
2019-01-16T18:45:08.799Z,4.47
2019-01-16T18:47:46.080Z,4.60
2019-01-16T18:50:30.991Z,4.10
2019-01-16T18:52:59.676Z,4.40
2019-01-16T18:55:30.632Z,4.00
2019-01-16T18:58:07.903Z,4.47
2019-01-16T19:00:39.087Z,4.40
2019-01-16T19:03:16.535Z,4.60
2019-01-16T19:05:47.879Z,4.00
2019-01-16T19:08:25.028Z,4.17
2019-01-16T19:10:59.155Z,3.90
2019-01-16T19:13:30.627Z,4.00
2019-01-16T19:16:01.875Z,4.20
2019-01-16T19:18:30.554Z,3.83
2019-01-16T19:21:01.788Z,4.93
2019-01-16T19:23:46.827Z,3.93
2019-01-16T19:26:33.575Z,4.00
2019-01-16T19:29:17.315Z,4.20
2019-01-16T19:32:02.488Z,4.37
2019-01-16T19:34:36.808Z,4.40
2019-01-16T19:37:05.959Z,4.60
2019-01-16T19:39:37.284Z,4.60
2019-01-16T19:42:11.871Z,3.90
2019-01-16T19:44:40.220Z,4.57
2019-01-16T19:47:08.831Z,4.93
2019-01-16T19:49:46.239Z,4.30
2019-01-16T19:52:14.552Z,4.50
2019-01-16T19:54:52.087Z,4.80
2019-01-16T19:57:26.303Z,4.00
2019-01-16T19:59:54.655Z,4.33
2019-01-16T20:02:25.587Z,4.67
2019-01-16T20:05:05.915Z,4.13
2019-01-16T20:07:34.236Z,4.73
2019-01-16T20:10:02.555Z,4.57
2019-01-16T20:12:39.621Z,4.10
2019-01-16T20:15:09.436Z,4.00
2019-01-16T20:17:38.107Z,4.90
2019-01-16T20:20:17.439Z,4.73
2019-01-16T20:23:02.416Z,4.90
2019-01-16T20:25:30.991Z,4.57
2019-01-16T20:28:02.043Z,4.43
2019-01-16T20:30:46.768Z,4.40
2019-01-16T20:33:27.047Z,4.70
2019-01-16T20:36:01.571Z,4.93
2019-01-16T20:38:46.338Z,4.10
2019-01-16T20:41:29.788Z,4.53
2019-01-16T20:44:14.327Z,4.33
2019-01-16T20:46:45.299Z,4.40
2019-01-16T20:49:16.817Z,4.13
2019-01-16T20:52:00.207Z,3.70
2019-01-16T20:54:34.148Z,4.53
2019-01-16T20:57:02.836Z,5.07
2019-01-16T20:59:37.151Z,4.60
2019-01-16T21:02:08.508Z,3.80
2019-01-16T21:04:39.719Z,3.90
2019-01-16T21:07:10.943Z,4.50
2019-01-16T21:09:39.264Z,4.90
2019-01-16T21:12:10.815Z,4.43
2019-01-16T21:14:48.109Z,5.07
2019-01-16T21:17:33.067Z,4.80
2019-01-16T21:20:04.031Z,4.47
2019-01-16T21:22:47.548Z,5.03
2019-01-16T21:25:24.659Z,5.13
2019-01-16T21:28:10.531Z,4.90
2019-01-16T21:30:38.944Z,5.17
2019-01-16T21:33:10.629Z,4.57
2019-01-16T21:35:37.503Z,4.87
2019-01-16T21:38:05.819Z,4.33
2019-01-16T21:40:51.140Z,4.70
2019-01-16T21:43:22.575Z,4.60
2019-01-16T21:45:56.942Z,3.83
2019-01-16T21:48:37.676Z,3.87
2019-01-16T21:51:23.976Z,4.97
2019-01-16T21:53:55.183Z,4.90
2019-01-16T21:56:26.407Z,4.83
2019-01-16T21:58:54.720Z,4.93
2019-01-16T22:01:29.191Z,5.30
2019-01-16T22:03:57.740Z,4.70
2019-01-16T22:06:32.159Z,4.80
2019-01-16T22:09:14.982Z,4.47
2019-01-16T22:11:56.487Z,4.37
2019-01-16T22:14:34.155Z,4.53
2019-01-16T22:17:20.631Z,4.50
2019-01-16T22:19:55.179Z,4.03
2019-01-16T22:22:32.771Z,4.07
2019-01-16T22:25:01.369Z,4.50
2019-01-16T22:27:46.638Z,4.20
2019-01-16T22:30:25.687Z,3.97
2019-01-16T22:33:00.180Z,4.07
2019-01-16T22:35:45.456Z,4.70
2019-01-16T22:38:25.591Z,3.63
2019-01-16T22:40:56.526Z,4.30
2019-01-16T22:43:30.655Z,4.47
2019-01-16T22:46:08.069Z,4.27
2019-01-16T22:48:36.420Z,4.03
2019-01-16T22:51:04.730Z,4.20
2019-01-16T22:53:49.753Z,3.80
2019-01-16T22:56:27.088Z,4.27
2019-01-16T22:59:11.736Z,3.33
2019-01-16T23:01:56.988Z,3.90
2019-01-16T23:04:28.643Z,4.10
2019-01-16T23:06:56.959Z,4.07
2019-01-16T23:09:34.520Z,3.97
2019-01-16T23:12:03.293Z,3.97
2019-01-16T23:14:31.716Z,3.90
2019-01-16T23:17:00.364Z,4.17
2019-01-16T23:19:31.609Z,3.83
2019-01-16T23:22:15.139Z,3.80
2019-01-16T23:24:43.524Z,3.93
2019-01-16T23:27:11.839Z,4.13
2019-01-16T23:29:50.424Z,4.37
2019-01-16T23:32:31.311Z,3.73
2019-01-16T23:35:02.597Z,4.10
2019-01-16T23:37:30.947Z,3.90
2019-01-16T23:39:59.336Z,4.43
2019-01-16T23:42:33.342Z,3.80
2019-01-16T23:45:07.591Z,3.33
2019-01-16T23:47:44.872Z,3.83
2019-01-16T23:50:22.283Z,4.10
2019-01-16T23:52:59.327Z,3.60
2019-01-16T23:55:30.587Z,3.77
2019-01-16T23:58:01.797Z,3.37
